Time;durP1;ratioP1;P1;durP2;ratioP2;P2;SDS_P1;SDS_P2;PMS_P1;PMS_P2;Temp;Humidity;BMP_temperature;BMP_pressure;BME280_temperature;BME280_humidity;BME280_pressure;Samples;Min_cycle;Max_cycle;Signal;HPM_P1;HPM_P2
2023/05/14 00:01:50;;;;;;;35.63;26.50;;;409.60;2355.20;;;;;;5011446;28;20068;-62
2023/05/14 00:04:18;;;;;;;32.13;27.10;;;384.90;2329.60;;;;;;5011692;28;20034;-57
2023/05/14 00:06:44;;;;;;;32.35;26.83;;;409.60;2355.20;;;;;;5010445;28;21241;-56
2023/05/14 00:09:10;;;;;;;29.30;25.02;;;409.70;2278.40;;;;;;5011575;28;20033;-59
2023/05/14 00:11:36;;;;;;;29.73;23.23;;;409.60;2355.20;;;;;;5011057;28;20527;-56
2023/05/14 00:14:02;;;;;;;24.33;19.05;;;409.60;2355.20;;;;;;5011184;28;20037;-56
2023/05/14 00:16:28;;;;;;;21.90;17.13;;;384.80;2329.60;;;;;;5011170;28;20026;-58
2023/05/14 00:18:53;;;;;;;23.75;20.40;;;384.70;2329.60;;;;;;5011565;28;20037;-56
2023/05/14 00:21:19;;;;;;;19.63;17.52;;;384.70;2329.60;;;;;;5010866;28;20022;-59
2023/05/14 00:23:45;;;;;;;22.05;17.83;;;409.60;2355.20;;;;;;5011584;28;20046;-55
2023/05/14 00:26:11;;;;;;;23.75;18.48;;;384.80;2022.40;;;;;;5010996;28;20014;-56
2023/05/14 00:28:36;;;;;;;22.75;19.65;;;384.90;2329.60;;;;;;5010986;28;20062;-56
2023/05/14 00:31:02;;;;;;;26.00;17.45;;;384.90;2329.60;;;;;;5011061;28;20057;-55
2023/05/14 00:33:28;;;;;;;21.00;17.40;;;409.60;2355.20;;;;;;5010959;28;20049;-56
2023/05/14 00:35:53;;;;;;;18.45;14.40;;;384.90;2329.60;;;;;;5011146;28;20064;-56
2023/05/14 00:38:19;;;;;;;20.60;17.20;;;384.70;2329.60;;;;;;5010875;28;20022;-55
2023/05/14 00:40:50;;;;;;;22.38;16.15;;;384.70;2329.60;;;;;;5010996;28;20022;-55
2023/05/14 00:43:17;;;;;;;21.25;17.27;;;384.70;2329.60;;;;;;5010790;28;20037;-56
2023/05/14 00:45:44;;;;;;;17.08;14.55;;;384.70;2329.60;;;;;;5011020;28;20097;-55
2023/05/14 00:48:10;;;;;;;16.52;14.57;;;384.70;2329.60;;;;;;5010634;28;20026;-59
2023/05/14 00:50:37;;;;;;;17.95;15.35;;;384.70;2329.60;;;;;;5010677;28;20112;-58
2023/05/14 00:53:08;;;;;;;24.00;19.13;;;384.70;2329.60;;;;;;5010452;28;20062;-55
2023/05/14 00:55:36;;;;;;;23.35;18.85;;;384.80;2329.60;;;;;;5010625;28;20380;-56
2023/05/14 00:58:08;;;;;;;24.15;17.90;;;384.90;2329.60;;;;;;5010492;28;20353;-55
2023/05/14 01:00:34;;;;;;;22.35;16.70;;;384.80;2329.60;;;;;;5010903;28;20026;-56
2023/05/14 01:03:01;;;;;;;24.92;17.83;;;384.70;2329.60;;;;;;5010303;28;20022;-58
2023/05/14 01:05:50;;;;;;;21.65;17.58;;;384.80;2227.20;;;;;;5010374;28;20546;-59
2023/05/14 01:08:27;;;;;;;25.50;17.27;;;384.70;2329.60;;;;;;5010194;28;20041;-55
2023/05/14 01:11:05;;;;;;;23.63;17.95;;;384.70;2329.60;;;;;;5010578;28;20025;-59
2023/05/14 01:13:39;;;;;;;18.55;16.05;;;384.70;2329.60;;;;;;5010304;28;20084;-59
2023/05/14 01:16:11;;;;;;;19.38;15.60;;;384.70;2329.60;;;;;;5010241;28;20030;-59
2023/05/14 01:18:38;;;;;;;21.23;15.60;;;384.70;2329.60;;;;;;5010337;28;20068;-55
2023/05/14 01:21:05;;;;;;;18.67;15.05;;;384.70;2329.60;;;;;;5010183;28;20468;-58
2023/05/14 01:23:30;;;;;;;18.45;14.70;;;409.90;2355.20;;;;;;5010599;28;20038;-59
2023/05/14 01:25:56;;;;;;;18.98;15.70;;;384.80;2329.60;;;;;;5010098;28;20368;-55
2023/05/14 01:28:30;;;;;;;20.27;15.48;;;384.50;2329.60;;;;;;5010056;28;20111;-56
2023/05/14 01:31:06;;;;;;;20.67;17.95;;;384.50;2252.80;;;;;;5010133;28;20028;-56
2023/05/14 01:33:34;;;;;;;20.13;17.55;;;384.30;2329.60;;;;;;5010116;28;20395;-54
2023/05/14 01:36:00;;;;;;;26.77;20.38;;;384.50;2329.60;;;;;;5010048;28;20025;-55
2023/05/14 01:38:30;;;;;;;25.60;19.08;;;384.50;2329.60;;;;;;5010192;28;20029;-55
2023/05/14 01:40:57;;;;;;;30.33;19.70;;;384.60;2278.40;;;;;;5010111;28;20026;-55
2023/05/14 01:43:23;;;;;;;31.77;21.17;;;384.60;2329.60;;;;;;5009692;28;20492;-56
2023/05/14 01:45:49;;;;;;;32.08;20.35;;;384.50;2329.60;;;;;;5009666;28;20562;-55
2023/05/14 01:48:14;;;;;;;40.25;20.92;;;384.50;2329.60;;;;;;5010165;28;20034;-56
2023/05/14 01:50:40;;;;;;;26.27;16.60;;;384.60;2329.60;;;;;;5009562;28;20472;-61
2023/05/14 01:53:06;;;;;;;18.38;16.05;;;384.70;2329.60;;;;;;5009288;28;20045;-56
2023/05/14 01:55:32;;;;;;;19.58;16.33;;;384.50;2329.60;;;;;;5009662;28;20024;-59
2023/05/14 01:57:58;;;;;;;19.85;16.13;;;384.70;2329.60;;;;;;5009310;28;20021;-59
2023/05/14 02:00:24;;;;;;;24.15;18.02;;;384.70;2329.60;;;;;;5009892;28;20018;-56
2023/05/14 02:02:50;;;;;;;22.52;18.05;;;384.70;2329.60;;;;;;5009667;28;20109;-57
2023/05/14 02:05:16;;;;;;;20.95;15.05;;;384.70;2329.60;;;;;;5009368;28;20116;-56
2023/05/14 02:07:42;;;;;;;21.13;15.70;;;384.70;2329.60;;;;;;5009969;28;20067;-55
2023/05/14 02:10:08;;;;;;;21.42;16.23;;;384.60;2329.60;;;;;;5008509;28;20468;-55
2023/05/14 02:12:34;;;;;;;21.83;16.13;;;384.50;2329.60;;;;;;5009385;28;20065;-60
2023/05/14 02:15:00;;;;;;;18.52;15.95;;;384.40;2329.60;;;;;;5009201;28;20140;-56
2023/05/14 02:17:25;;;;;;;21.25;18.20;;;384.30;2329.60;;;;;;5010098;28;20105;-56
2023/05/14 02:19:51;;;;;;;21.90;15.80;;;384.40;2329.60;;;;;;5009231;28;20049;-56
2023/05/14 02:22:17;;;;;;;19.35;16.17;;;384.50;2329.60;;;;;;5009264;28;20041;-56
2023/05/14 02:24:43;;;;;;;24.17;18.05;;;384.40;2329.60;;;;;;5009407;28;20040;-59
2023/05/14 02:27:08;;;;;;;17.95;15.98;;;384.30;2329.60;;;;;;5009220;28;20029;-56
2023/05/14 02:29:34;;;;;;;21.98;16.80;;;384.50;2329.60;;;;;;5009142;28;20033;-56
2023/05/14 02:32:00;;;;;;;24.08;18.13;;;384.40;2329.60;;;;;;5009540;28;20034;-59
2023/05/14 02:34:25;;;;;;;22.92;18.35;;;384.40;2329.60;;;;;;5009340;28;20400;-56
2023/05/14 02:36:51;;;;;;;18.70;16.65;;;384.40;2329.60;;;;;;5009547;28;20076;-56
2023/05/14 02:39:17;;;;;;;21.25;16.73;;;384.50;2329.60;;;;;;5009100;28;20584;-56
2023/05/14 02:41:42;;;;;;;18.85;16.60;;;384.50;2329.60;;;;;;5009520;28;20029;-58
2023/05/14 02:44:08;;;;;;;20.75;17.42;;;384.40;2329.60;;;;;;5008719;28;20029;-56
2023/05/14 02:46:34;;;;;;;19.98;17.75;;;384.30;2329.60;;;;;;5009426;28;20060;-57
2023/05/14 02:49:00;;;;;;;18.05;16.13;;;384.30;2329.60;;;;;;5008882;28;20025;-58
2023/05/14 02:51:26;;;;;;;18.85;15.90;;;384.40;2329.60;;;;;;5009130;28;20038;-56
2023/05/14 02:53:52;;;;;;;21.85;17.35;;;384.50;2329.60;;;;;;5008918;28;20438;-56
2023/05/14 02:56:17;;;;;;;22.75;17.00;;;384.40;2329.60;;;;;;5008806;28;20361;-56
2023/05/14 02:58:43;;;;;;;25.42;17.60;;;384.40;2329.60;;;;;;5008876;28;20030;-57
2023/05/14 03:01:09;;;;;;;17.30;15.43;;;384.40;2329.60;;;;;;5008874;28;20025;-56
2023/05/14 03:03:35;;;;;;;26.30;18.13;;;384.30;2329.60;;;;;;5009381;28;20026;-60
2023/05/14 03:06:01;;;;;;;24.83;20.17;;;384.30;2329.60;;;;;;5009097;28;20095;-56
2023/05/14 03:08:26;;;;;;;21.10;18.02;;;384.20;2329.60;;;;;;5009033;28;20113;-56
2023/05/14 03:10:52;;;;;;;22.35;17.67;;;384.30;2329.60;;;;;;5008922;28;20073;-56
2023/05/14 03:13:19;;;;;;;23.55;17.88;;;384.40;2329.60;;;;;;5008654;28;20477;-56
2023/05/14 03:15:46;;;;;;;22.33;17.30;;;384.30;2329.60;;;;;;5009096;28;20064;-56
2023/05/14 03:18:14;;;;;;;21.60;18.02;;;384.40;2329.60;;;;;;5009385;28;20025;-56
2023/05/14 03:20:40;;;;;;;20.10;15.43;;;384.30;2329.60;;;;;;5008964;28;20037;-57
2023/05/14 03:23:06;;;;;;;23.10;18.48;;;384.30;2329.60;;;;;;5011540;28;20030;-56
2023/05/14 03:25:33;;;;;;;22.02;17.27;;;384.30;2329.60;;;;;;5012357;28;20038;-59
2023/05/14 03:27:59;;;;;;;20.38;17.40;;;384.30;2329.60;;;;;;5017299;28;20043;-56
2023/05/14 03:30:24;;;;;;;19.70;16.90;;;384.30;2329.60;;;;;;5020369;28;20523;-57
2023/05/14 03:32:50;;;;;;;21.85;17.25;;;409.60;2355.20;;;;;;5012297;28;20041;-56
2023/05/14 03:35:16;;;;;;;27.85;20.90;;;384.40;2329.60;;;;;;5012446;28;20029;-56
2023/05/14 03:37:42;;;;;;;25.52;20.75;;;384.40;2329.60;;;;;;5012120;28;20029;-59
2023/05/14 03:40:08;;;;;;;22.50;19.55;;;384.50;2329.60;;;;;;5011987;28;20490;-58
2023/05/14 03:42:34;;;;;;;24.13;19.60;;;384.50;1945.60;;;;;;5011864;28;20057;-58
2023/05/14 03:44:59;;;;;;;19.92;17.35;;;384.40;2099.20;;;;;;5012119;28;20026;-58
2023/05/14 03:47:25;;;;;;;24.48;19.40;;;384.40;2329.60;;;;;;5012058;28;20534;-57
2023/05/14 03:49:51;;;;;;;22.75;20.00;;;384.20;2329.60;;;;;;5012369;28;20109;-58
2023/05/14 03:52:16;;;;;;;21.58;19.27;;;384.20;2329.60;;;;;;5011582;28;20054;-58
2023/05/14 03:54:42;;;;;;;22.80;19.15;;;384.30;2329.60;;;;;;5011801;28;20038;-59
2023/05/14 03:57:07;;;;;;;22.73;18.60;;;384.40;2329.60;;;;;;5011869;28;20034;-57
2023/05/14 03:59:33;;;;;;;19.35;17.35;;;384.30;2329.60;;;;;;5011534;28;20488;-60
2023/05/14 04:01:59;;;;;;;19.75;16.95;;;384.30;2329.60;;;;;;5011569;28;20018;-57
2023/05/14 04:04:25;;;;;;;21.00;18.73;;;384.20;2329.60;;;;;;5011964;28;20383;-58
2023/05/14 04:06:50;;;;;;;22.17;19.63;;;384.20;2329.60;;;;;;5011529;28;20058;-57
2023/05/14 04:09:16;;;;;;;23.63;19.33;;;384.30;2329.60;;;;;;5011443;28;20022;-57
2023/05/14 04:11:41;;;;;;;22.95;19.63;;;384.20;2329.60;;;;;;5011577;28;20025;-60
2023/05/14 04:14:07;;;;;;;21.38;18.35;;;384.20;2329.60;;;;;;5024325;28;20120;-58
2023/05/14 04:16:33;;;;;;;21.73;17.38;;;384.30;2329.60;;;;;;5021725;28;20026;-60
2023/05/14 04:19:01;;;;;;;22.15;19.23;;;384.20;2329.60;;;;;;5014619;28;20088;-60
2023/05/14 04:21:27;;;;;;;19.98;16.95;;;384.30;2329.60;;;;;;5024515;28;20054;-57
2023/05/14 04:23:53;;;;;;;24.83;22.27;;;384.30;2329.60;;;;;;5011194;28;20065;-57
2023/05/14 04:26:18;;;;;;;32.53;29.45;;;384.50;2329.60;;;;;;5011401;28;20033;-57
2023/05/14 04:28:44;;;;;;;21.13;18.85;;;384.30;2329.60;;;;;;5011121;28;20365;-61
2023/05/14 04:31:10;;;;;;;17.15;15.35;;;384.40;2124.80;;;;;;5011213;28;20080;-57
2023/05/14 04:33:35;;;;;;;17.85;15.95;;;384.40;2329.60;;;;;;5010781;28;20471;-61
2023/05/14 04:36:01;;;;;;;25.58;23.05;;;384.40;2329.60;;;;;;5011099;28;20375;-58
2023/05/14 04:38:27;;;;;;;19.48;17.42;;;384.30;2329.60;;;;;;5024212;28;20045;-55
2023/05/14 04:40:52;;;;;;;21.15;17.30;;;384.50;2329.60;;;;;;5011093;28;20084;-55
2023/05/14 04:43:18;;;;;;;19.20;16.60;;;384.50;2329.60;;;;;;5010695;28;20036;-56
2023/05/14 04:45:44;;;;;;;27.27;22.02;;;384.50;2329.60;;;;;;5010751;28;20030;-57
2023/05/14 04:48:10;;;;;;;23.15;18.13;;;384.60;2329.60;;;;;;5010560;28;20022;-56
2023/05/14 04:50:35;;;;;;;23.83;21.23;;;384.40;2329.60;;;;;;5010973;28;20083;-57
2023/05/14 04:53:02;;;;;;;22.27;18.63;;;384.50;1971.20;;;;;;5010592;28;20401;-57
2023/05/14 04:55:28;;;;;;;21.95;17.30;;;384.50;2329.60;;;;;;5010591;28;20522;-56
2023/05/14 04:57:54;;;;;;;22.00;18.77;;;384.50;2252.80;;;;;;5010965;28;20048;-56
2023/05/14 05:00:20;;;;;;;20.25;16.83;;;384.30;2329.60;;;;;;5010375;28;20025;-56
2023/05/14 05:02:46;;;;;;;18.42;16.08;;;384.40;2329.60;;;;;;5010345;28;20026;-56
2023/05/14 05:05:12;;;;;;;19.88;16.83;;;384.50;1945.60;;;;;;5010611;28;20026;-56
2023/05/14 05:07:38;;;;;;;22.67;16.40;;;384.40;2022.40;;;;;;5010394;28;20033;-56
2023/05/14 05:10:04;;;;;;;21.83;15.27;;;384.40;2329.60;;;;;;5010112;28;20018;-58
2023/05/14 05:12:29;;;;;;;34.38;25.20;;;384.50;2329.60;;;;;;5010325;28;20110;-56
2023/05/14 05:14:56;;;;;;;55.33;42.40;;;384.30;2329.60;;;;;;5010425;28;20109;-56
2023/05/14 05:17:22;;;;;;;30.55;27.42;;;384.50;2124.80;;;;;;5010385;28;20014;-60
2023/05/14 05:19:48;;;;;;;26.83;24.10;;;384.60;2329.60;;;;;;5010123;28;20034;-55
2023/05/14 05:22:14;;;;;;;22.92;18.65;;;384.60;2329.60;;;;;;5021199;28;20383;-55
2023/05/14 05:24:40;;;;;;;23.98;21.02;;;384.70;2329.60;;;;;;5011882;28;20041;-56
2023/05/14 05:27:06;;;;;;;20.10;16.60;;;384.80;2329.60;;;;;;5010151;28;20033;-56
2023/05/14 05:29:32;;;;;;;41.97;30.23;;;384.70;2329.60;;;;;;5023301;28;20026;-56
2023/05/14 05:31:58;;;;;;;17.10;15.30;;;384.70;2329.60;;;;;;5010148;28;20057;-56
2023/05/14 05:34:23;;;;;;;17.23;15.38;;;384.70;2329.60;;;;;;5009854;28;20029;-56
2023/05/14 05:36:49;;;;;;;24.75;21.02;;;384.70;1996.80;;;;;;5010102;28;20022;-56
2023/05/14 05:39:15;;;;;;;28.10;22.17;;;384.90;2329.60;;;;;;5009942;28;20026;-56
2023/05/14 05:41:42;;;;;;;22.25;19.52;;;384.80;2022.40;;;;;;5009638;28;20380;-56
2023/05/14 05:44:07;;;;;;;21.67;18.67;;;409.60;2355.20;;;;;;5009596;28;20022;-56
2023/05/14 05:46:33;;;;;;;24.13;21.27;;;409.60;2355.20;;;;;;5009136;28;20053;-56
2023/05/14 05:48:59;;;;;;;22.73;20.13;;;409.70;2355.20;;;;;;5009617;28;20022;-56
2023/05/14 05:51:24;;;;;;;22.52;19.52;;;409.80;2355.20;;;;;;5009738;28;20050;-56
2023/05/14 05:53:50;;;;;;;18.98;17.08;;;409.90;2355.20;;;;;;5009037;28;20041;-57
2023/05/14 05:56:16;;;;;;;19.10;17.08;;;410.00;2355.20;;;;;;5010011;28;20104;-56
2023/05/14 05:58:41;;;;;;;24.38;22.15;;;410.20;2355.20;;;;;;5009408;28;20021;-56
2023/05/14 06:01:07;;;;;;;19.50;17.25;;;410.40;2355.20;;;;;;5009709;28;20026;-56
2023/05/14 06:03:33;;;;;;;20.52;17.55;;;435.40;2355.20;;;;;;5009664;28;20025;-55
2023/05/14 06:05:58;;;;;;;17.13;15.38;;;435.30;2355.20;;;;;;5009463;28;20379;-56
2023/05/14 06:08:24;;;;;;;18.98;15.82;;;435.20;2355.20;;;;;;5009568;28;20033;-56
2023/05/14 06:10:50;;;;;;;21.83;17.73;;;435.30;2355.20;;;;;;5009512;28;20116;-58
2023/05/14 06:13:16;;;;;;;22.27;17.95;;;435.20;2355.20;;;;;;5009515;28;20470;-56
2023/05/14 06:15:41;;;;;;;28.45;21.45;;;435.30;2355.20;;;;;;5020165;28;20048;-57
2023/05/14 06:18:07;;;;;;;34.22;23.40;;;435.50;2355.20;;;;;;5012070;28;20033;-56
2023/05/14 06:20:33;;;;;;;37.88;21.73;;;435.60;2355.20;;;;;;5009583;28;20034;-59
2023/05/14 06:22:59;;;;;;;20.85;14.95;;;435.60;2355.20;;;;;;5009179;28;20018;-59
2023/05/14 06:25:24;;;;;;;24.58;16.42;;;435.50;2355.20;;;;;;5009854;28;20030;-60
2023/05/14 06:27:50;;;;;;;15.35;12.15;;;435.60;2355.20;;;;;;5009396;28;20140;-55
2023/05/14 06:30:16;;;;;;;13.80;10.60;;;435.30;2355.20;;;;;;5009339;28;20022;-59
2023/05/14 06:32:41;;;;;;;17.67;12.27;;;435.30;2355.20;;;;;;5009138;28;20419;-56
2023/05/14 06:35:07;;;;;;;18.00;13.80;;;410.50;2355.20;;;;;;5009235;28;20029;-56
2023/05/14 06:37:33;;;;;;;15.48;11.77;;;410.40;2355.20;;;;;;5009670;28;20030;-56
2023/05/14 06:40:00;;;;;;;11.48;9.18;;;410.50;2355.20;;;;;;5008894;28;20375;-59
2023/05/14 06:42:26;;;;;;;15.02;11.77;;;410.30;2355.20;;;;;;5009263;28;20490;-56
2023/05/14 06:44:51;;;;;;;13.65;10.52;;;410.30;2355.20;;;;;;5009328;28;20170;-60
2023/05/14 06:47:17;;;;;;;17.88;12.20;;;410.20;2355.20;;;;;;5008964;28;20022;-56
2023/05/14 06:49:43;;;;;;;14.68;10.38;;;410.00;2355.20;;;;;;5009111;28;20468;-56
2023/05/14 06:52:08;;;;;;;13.77;11.02;;;410.00;2355.20;;;;;;5008603;28;20124;-56
2023/05/14 06:54:34;;;;;;;13.43;11.80;;;410.00;2355.20;;;;;;5008597;28;20046;-60
2023/05/14 06:57:00;;;;;;;13.15;11.70;;;410.20;2355.20;;;;;;5010236;28;20538;-59
2023/05/14 06:59:26;;;;;;;12.55;10.07;;;410.30;2355.20;;;;;;5013170;28;20117;-56
2023/05/14 07:01:51;;;;;;;13.65;10.48;;;410.20;2355.20;;;;;;5013015;28;20017;-56
2023/05/14 07:04:17;;;;;;;13.52;12.13;;;410.40;2355.20;;;;;;5012525;28;20032;-56
2023/05/14 07:06:43;;;;;;;19.85;12.10;;;410.30;2355.20;;;;;;5013114;28;20030;-56
2023/05/14 07:09:09;;;;;;;18.27;12.82;;;410.20;2355.20;;;;;;5012713;28;20427;-56
2023/05/14 07:11:35;;;;;;;16.92;13.02;;;410.30;2355.20;;;;;;5012808;28;20092;-60
2023/05/14 07:14:00;;;;;;;24.40;17.75;;;410.30;2355.20;;;;;;5014089;28;20423;-59
2023/05/14 07:16:26;;;;;;;16.75;13.30;;;410.10;2355.20;;;;;;5023637;28;20030;-55
2023/05/14 07:18:52;;;;;;;13.90;11.48;;;410.20;2355.20;;;;;;5012642;28;20052;-56
2023/05/14 07:21:18;;;;;;;20.15;13.15;;;410.20;2355.20;;;;;;5012108;28;20026;-56
2023/05/14 07:23:43;;;;;;;28.13;19.85;;;410.50;2355.20;;;;;;5012413;28;20116;-56
2023/05/14 07:26:09;;;;;;;37.20;26.95;;;435.40;2355.20;;;;;;5020691;28;20028;-56
2023/05/14 07:28:35;;;;;;;14.00;10.13;;;435.90;2355.20;;;;;;5012971;28;20046;-56
2023/05/14 07:31:03;;;;;;;21.25;15.80;;;;;;;;;;5024501;28;20426;-56
2023/05/14 07:33:29;;;;;;;16.23;12.25;;;;;;;;;;5012568;28;20026;-55
2023/05/14 07:35:56;;;;;;;13.55;10.52;;;;;;;;;;5012349;28;20113;-55
2023/05/14 07:38:22;;;;;;;12.23;8.68;;;;;;;;;;5011475;28;20680;-56
2023/05/14 07:40:48;;;;;;;16.48;12.27;;;;;;;;;;5022042;28;20028;-56
2023/05/14 07:43:13;;;;;;;15.93;12.18;;;537.60;2406.40;;;;;;5014643;28;20443;-56
2023/05/14 07:45:39;;;;;;;14.35;9.57;;;563.90;2432.00;;;;;;5011809;28;20118;-55
2023/05/14 07:48:05;;;;;;;15.65;12.50;;;589.70;2380.80;;;;;;5012121;28;20472;-55
2023/05/14 07:50:31;;;;;;;14.50;10.05;;;615.10;2278.40;;;;;;5011923;28;20036;-59
2023/05/14 07:52:57;;;;;;;11.77;10.27;;;614.90;2278.40;;;;;;5011352;28;20085;-58
2023/05/14 07:55:23;;;;;;;11.02;9.52;;;589.20;2406.40;;;;;;5011878;28;20018;-56
2023/05/14 07:57:49;;;;;;;33.17;26.83;;;;;;;;;;5011536;28;20105;-56
2023/05/14 08:00:15;;;;;;;16.42;14.48;;;;;;;;;;5011661;28;20046;-56
2023/05/14 08:02:42;;;;;;;11.90;8.65;;;;;;;;;;5011511;28;20026;-58
2023/05/14 08:05:08;;;;;;;11.25;7.15;;;;;;;;;;5011162;28;20032;-60
2023/05/14 08:07:34;;;;;;;9.38;8.45;;;;;;;;;;5011008;28;20028;-52
2023/05/14 08:10:00;;;;;;;9.02;6.95;;;512.00;2380.80;;;;;;5010274;28;20068;-60
2023/05/14 08:12:28;;;;;;;8.43;7.10;;;;;;;;;;5011849;28;20032;-55
2023/05/14 08:14:55;;;;;;;11.70;9.30;;;;;;;;;;5011135;28;20095;-57
2023/05/14 08:17:20;;;;;;;11.00;9.55;;;512.80;2380.80;;;;;;5011221;28;20010;-55
2023/05/14 08:19:46;;;;;;;16.38;13.90;;;512.90;2380.80;;;;;;5013015;28;20384;-57
2023/05/14 08:22:12;;;;;;;7.53;5.90;;;512.90;2380.80;;;;;;5011250;28;20473;-57
2023/05/14 08:24:38;;;;;;;10.68;9.43;;;512.90;2380.80;;;;;;5011005;28;20037;-56
2023/05/14 08:27:04;;;;;;;7.45;6.22;;;537.70;2406.40;;;;;;5011264;28;20416;-59
2023/05/14 08:29:29;;;;;;;16.95;14.60;;;538.30;2406.40;;;;;;5009633;28;20112;-60
2023/05/14 08:31:56;;;;;;;10.10;6.57;;;563.20;2432.00;;;;;;5010167;28;20030;-58
2023/05/14 08:34:22;;;;;;;11.63;7.93;;;;;;;;;;5009994;28;20030;-60
2023/05/14 08:36:48;;;;;;;6.47;5.70;;;;;;;;;;5010229;28;20691;-59
2023/05/14 08:39:14;;;;;;;10.77;8.23;;;;;;;;;;5010036;28;20029;-59
2023/05/14 08:41:40;;;;;;;11.85;6.45;;;;;;;;;;5009876;28;20030;-60
2023/05/14 08:44:10;;;;;;;9.57;6.90;;;;;;;;;;5009822;28;20440;-56
2023/05/14 08:46:38;;;;;;;9.80;7.18;;;;;;;;;;5010130;28;20420;-59
2023/05/14 08:49:22;;;;;;;8.05;6.88;;;;;;;;;;5010046;28;20088;-59
2023/05/14 08:51:49;;;;;;;11.90;6.03;;;;;;;;;;5009234;28;20060;-56
2023/05/14 08:54:21;;;;;;;7.35;6.18;;;;;;;;;;5009440;28;20111;-56
2023/05/14 08:56:47;;;;;;;7.70;5.80;;;;;;;;;;5009655;28;20113;-56
2023/05/14 08:59:13;;;;;;;7.88;5.38;;;;;;;;;;5009620;28;20033;-53
2023/05/14 09:01:42;;;;;;;8.65;6.85;;;;;;;;;;5009373;28;20025;-58
2023/05/14 09:04:08;;;;;;;11.60;8.07;;;;;;;;;;5009574;28;20034;-56
2023/05/14 09:06:39;;;;;;;8.90;5.85;;;;;;;;;;5009643;28;20029;-55
2023/05/14 09:09:05;;;;;;;6.93;5.85;;;538.50;2406.40;;;;;;5008995;28;20025;-64
2023/05/14 09:11:31;;;;;;;8.88;6.78;;;538.10;2406.40;;;;;;5008355;28;20415;-64
2023/05/14 09:13:56;;;;;;;11.00;7.55;;;563.20;2432.00;;;;;;5009240;28;20033;-65
2023/05/14 09:16:24;;;;;;;12.40;8.88;;;563.50;2432.00;;;;;;5009610;28;20036;-63
2023/05/14 09:18:50;;;;;;;13.70;9.45;;;563.50;2432.00;;;;;;5008989;28;20373;-64
2023/05/14 09:21:17;;;;;;;14.85;8.55;;;563.30;2432.00;;;;;;5008192;28;20024;-66
2023/05/14 09:23:43;;;;;;;11.55;9.18;;;563.30;2432.00;;;;;;5009618;28;20033;-65
2023/05/14 09:26:10;;;;;;;15.70;13.20;;;538.30;2406.40;;;;;;5009264;28;20049;-64
2023/05/14 09:28:40;;;;;;;15.02;11.55;;;538.00;2406.40;;;;;;5008246;28;20495;-64
2023/05/14 09:31:08;;;;;;;11.55;8.75;;;563.20;2432.00;;;;;;5008303;28;20030;-64
2023/05/14 09:33:33;;;;;;;12.20;8.63;;;538.10;2406.40;;;;;;5008250;28;20129;-66
2023/05/14 09:35:59;;;;;;;8.00;7.20;;;537.80;2406.40;;;;;;5007494;28;20101;-64
2023/05/14 09:38:30;;;;;;;8.07;6.55;;;512.70;2380.80;;;;;;5009434;28;20049;-63
2023/05/14 09:40:56;;;;;;;7.15;6.40;;;512.40;2380.80;;;;;;5008440;28;20030;-63
2023/05/14 09:43:22;;;;;;;12.27;8.13;;;512.10;2380.80;;;;;;5008993;28;20076;-63
2023/05/14 09:45:48;;;;;;;12.82;9.90;;;512.40;2380.80;;;;;;5008306;28;20038;-64
2023/05/14 09:48:14;;;;;;;8.32;7.45;;;512.60;2380.80;;;;;;5008606;28;20030;-65
2023/05/14 09:50:44;;;;;;;8.00;6.85;;;512.10;2380.80;;;;;;5007605;28;20374;-66
2023/05/14 09:53:10;;;;;;;11.27;7.10;;;;;;;;;;5007604;28;20049;-64
2023/05/14 09:55:38;;;;;;;32.30;27.65;;;;;;;;;;5007661;28;20375;-65
2023/05/14 09:58:05;;;;;;;10.45;7.80;;;;;;;;;;5008189;28;20022;-64
2023/05/14 10:00:32;;;;;;;12.70;8.13;;;;;;;;;;5007629;28;20109;-66
2023/05/14 10:02:59;;;;;;;7.22;6.53;;;487.10;2380.80;;;;;;5007872;28;20029;-62
2023/05/14 10:05:25;;;;;;;8.95;7.07;;;487.00;2380.80;;;;;;5007441;28;20044;-62
2023/05/14 10:07:55;;;;;;;74.97;67.28;;;487.20;2380.80;;;;;;5008492;28;20022;-61
2023/05/14 10:10:25;;;;;;;8.30;7.43;;;537.60;2406.40;;;;;;5007755;28;20025;-61
2023/05/14 10:12:53;;;;;;;7.93;6.60;;;;;;;;;;5007986;28;20029;-61
2023/05/14 10:15:26;;;;;;;10.80;6.63;;;;;;;;;;5008338;28;20030;-61
2023/05/14 10:17:55;;;;;;;;;;;538.30;2406.40;;;;;;5008473;28;20524;-61
2023/05/14 10:20:22;;;;;;;13.27;6.45;;;;;;;;;;5008304;28;19905;-61
2023/05/14 10:22:48;;;;;;;8.27;6.93;;;563.30;2432.00;;;;;;5008165;28;20369;-63
2023/05/14 10:25:14;;;;;;;11.52;8.60;;;563.60;2432.00;;;;;;5008342;28;20143;-62
2023/05/14 10:27:41;;;;;;;6.10;5.50;;;563.90;2432.00;;;;;;5008899;28;20026;-65
2023/05/14 10:30:14;;;;;;;7.50;6.70;;;;;;;;;;5008841;28;20461;-62
2023/05/14 10:32:43;;;;;;;14.05;10.90;;;;;;;;;;5001835;28;20173;-67
2023/05/14 10:35:16;;;;;;;10.02;7.55;;;;;;;;;;5008530;28;20033;-62
2023/05/14 10:37:45;;;;;;;8.27;5.82;;;;;;;;;;5012752;28;20057;-61
2023/05/14 10:40:11;;;;;;;7.60;5.85;;;;;;;;;;5012338;28;20028;-63
2023/05/14 10:42:45;;;;;;;8.15;6.07;;;;;;;;;;5012711;28;20030;-62
2023/05/14 10:45:12;;;;;;;9.05;6.45;;;;;;;;;;5012602;28;20034;-61
2023/05/14 10:47:39;;;;;;;7.30;6.03;;;;;;;;;;5012295;28;20044;-62
2023/05/14 10:50:06;;;;;;;9.82;6.32;;;;;;;;;;5012455;28;20030;-62
2023/05/14 10:52:33;;;;;;;6.78;5.53;;;;;;;;;;5012337;28;20049;-64
2023/05/14 10:55:01;;;;;;;9.23;6.45;;;;;;;;;;5011395;28;20069;-63
2023/05/14 10:57:28;;;;;;;7.55;6.18;;;;;;;;;;5024468;28;20057;-63
2023/05/14 10:59:58;;;;;;;8.63;6.15;;;;;;;;;;5012887;28;20053;-63
2023/05/14 11:02:24;;;;;;;7.75;6.60;;;588.80;2432.00;;;;;;5012974;28;20018;-62
2023/05/14 11:05:02;;;;;;;6.82;6.05;;;564.10;2432.00;;;;;;5012376;28;20105;-64
2023/05/14 11:07:42;;;;;;;8.10;6.25;;;564.10;2432.00;;;;;;5012776;28;20030;-62
2023/05/14 11:10:15;;;;;;;7.43;5.45;;;563.90;2432.00;;;;;;5012240;28;20105;-63
2023/05/14 11:12:43;;;;;;;6.95;6.00;;;563.60;2432.00;;;;;;5013055;28;20117;-61
2023/05/14 11:15:11;;;;;;;8.63;6.07;;;563.60;2432.00;;;;;;5012052;28;20479;-62
2023/05/14 11:17:39;;;;;;;7.78;6.53;;;563.60;2432.00;;;;;;5012811;28;20510;-62
2023/05/14 11:20:06;;;;;;;7.50;6.10;;;563.80;2432.00;;;;;;5012775;28;20018;-63
2023/05/14 11:22:32;;;;;;;6.63;5.72;;;564.00;2432.00;;;;;;5012133;28;20049;-65
2023/05/14 11:24:57;;;;;;;7.53;6.40;;;563.60;2432.00;;;;;;5012142;28;20053;-62
2023/05/14 11:27:23;;;;;;;7.05;6.35;;;563.90;2432.00;;;;;;5012396;28;20099;-62
2023/05/14 11:29:49;;;;;;;8.52;5.93;;;589.40;2432.00;;;;;;5012061;28;20057;-62
2023/05/14 11:32:16;;;;;;;7.15;5.57;;;589.20;2432.00;;;;;;5012173;28;20476;-63
2023/05/14 11:34:45;;;;;;;9.45;5.25;;;589.30;2432.00;;;;;;5012473;28;20381;-63
2023/05/14 11:37:13;;;;;;;7.53;5.75;;;588.90;2432.00;;;;;;5011960;28;20117;-66
2023/05/14 11:39:44;;;;;;;7.20;5.22;;;564.10;2432.00;;;;;;5011681;28;20038;-62
2023/05/14 11:42:13;;;;;;;5.63;4.80;;;589.30;2432.00;;;;;;5012071;28;20372;-62
2023/05/14 11:44:39;;;;;;;7.60;5.13;;;589.30;2432.00;;;;;;5011967;28;20026;-62
2023/05/14 11:47:06;;;;;;;6.32;5.55;;;589.20;2432.00;;;;;;5011822;28;20388;-61
2023/05/14 11:49:34;;;;;;;8.57;6.13;;;589.10;2432.00;;;;;;5012024;28;20026;-62
2023/05/14 11:52:05;;;;;;;9.63;6.53;;;589.40;2432.00;;;;;;5011503;28;20492;-62
2023/05/14 11:54:32;;;;;;;8.98;6.38;;;589.70;2432.00;;;;;;5011293;28;20049;-67
2023/05/14 11:57:01;;;;;;;9.48;5.75;;;614.40;2432.00;;;;;;5011651;28;20421;-63
2023/05/14 11:59:31;;;;;;;9.23;8.23;;;614.70;2355.20;;;;;;5011484;28;20026;-62
2023/05/14 12:02:01;;;;;;;18.67;13.10;;;614.80;2329.60;;;;;;5011679;28;20427;-64
2023/05/14 12:04:28;;;;;;;7.53;6.57;;;614.80;2406.40;;;;;;5011814;28;20018;-62
2023/05/14 12:06:56;;;;;;;12.82;9.55;;;614.90;2380.80;;;;;;5011457;28;20068;-63
2023/05/14 12:09:22;;;;;;;13.00;7.70;;;615.20;2355.20;;;;;;5011992;28;20045;-61
2023/05/14 12:11:49;;;;;;;9.25;5.60;;;640.60;2227.20;;;;;;5011263;28;20392;-66
2023/05/14 12:14:17;;;;;;;6.97;5.05;;;640.00;2278.40;;;;;;5011420;28;20034;-65
2023/05/14 12:16:45;;;;;;;10.45;6.82;;;640.00;2278.40;;;;;;5011431;28;20026;-62
2023/05/14 12:19:13;;;;;;;11.43;7.10;;;615.20;2278.40;;;;;;5010855;28;20030;-62
2023/05/14 12:21:39;;;;;;;9.93;6.53;;;640.00;2252.80;;;;;;5011097;28;20069;-63